Have a Safe July 4th! 

Flight Track Log - Related Links

Times and Time Zones

All times are in EDT time to prevent confusion due to time zone crossing. See the AAY843 flight status page for this flight to view local times or setup timezone preferences in your user account.

Time Position Orientation Groundspeed Altitude Reporting Facility
EDT Latitude Longitude Course Direction KTS MPH feet Rate Location/Type
Mon 06:05:30 PM 43.1003 -76.0872 165° South 143 165 1,400  Level Boston Center
Mon 06:06:36 PM 43.0542 -76.0697 164° South 213 245 2,600 1,689 Climbing Boston Center
Mon 06:07:13 PM 43.0306 -76.0969 220° Southwest 225 259 4,300 2,939 Climbing Boston Center
Mon 06:08:14 PM 42.9769 -76.1503 216° Southwest 234 269 7,400 2,803 Climbing Boston Center
Mon 06:09:15 PM 42.9003 -76.2003 206° Southwest 261 300 10,000 1,671 Climbing Boston Center
Mon 06:15:07 PM 42.5990 -76.3040 195° South 332 382 18,900 1,666 Climbing FlightAware ADS-B
Mon 06:16:02 PM 42.4680 -76.3490 195° South 349 402 21,300 3,207 Climbing FlightAware ADS-B
Mon 06:17:03 PM 42.1950 -76.4420 195° South 381 438 25,100 3,070 Climbing FlightAware ADS-B
Mon 06:17:28 PM 42.1520 -76.4570 195° South 385 443 25,700 833 Climbing FlightAware ADS-B
Mon 06:18:15 PM 42.1280 -76.4650 195° South 384 442 26,100 1,452 Climbing FlightAware ADS-B
Mon 06:18:30 PM 42.1104 -76.4710 194° South 390 449 27,200 2,634 Climbing FlightAware ADS-B (EPLB / LUZ)
Mon 06:18:56 PM 42.0020 -76.5080 195° South 389 448 27,900 1,217 Climbing FlightAware ADS-B
Mon 06:19:39 PM 41.9240 -76.5340 195° South 396 456 28,600 650 Climbing FlightAware ADS-B
Mon 06:20:56 PM 41.8410 -76.5630 195° South 407 468 29,200 1,052 Climbing FlightAware ADS-B
Mon 06:21:16 PM 41.7555 -76.5913 194° South 406 467 30,300 2,000 Climbing FlightAware ADS-B (EPLB / LUZ)
Mon 06:21:38 PM 41.7090 -76.6070 195° South 410 472 30,600 857 Climbing FlightAware ADS-B
Mon 06:21:58 PM 41.6716 -76.6196 195° South 412 474 30,900 828 Climbing FlightAware ADS-B (CYYZ)
Mon 06:22:07 PM 41.6590 -76.6240 195° South 413 475 31,000 1,333 Climbing FlightAware ADS-B
Mon 06:22:52 PM 41.5730 -76.6520 195° South 407 468 32,100 1,607 Climbing FlightAware ADS-B
Mon 06:23:03 PM 41.5509 -76.6598 194° South 408 470 32,500 1,543 Climbing FlightAware ADS-B (KPHL)
Mon 06:23:27 PM 41.5080 -76.6740 195° South 402 463 33,000 1,200 Climbing FlightAware ADS-B
Mon 06:23:58 PM 41.4540 -76.6920 195° South 400 460 33,600 1,164 Climbing FlightAware ADS-B
Mon 06:24:34 PM 41.3890 -76.7140 195° South 397 457 34,300 1,183 Climbing FlightAware ADS-B
Mon 06:25:09 PM 41.3260 -76.7350 195° South 394 453 35,000 882 Climbing FlightAware ADS-B
Mon 06:25:42 PM 41.2990 -76.7440 195° South 391 450 35,300 1,297 Climbing FlightAware ADS-B
Mon 06:25:46 PM 41.2685 -76.7539 194° South 389 448 35,800 1,167 Climbing FlightAware ADS-B (KPHL)
Mon 06:26:18 PM 41.2128 -76.7723 194° South 390 449 36,000 107 Climbing FlightAware ADS-B (KPHL)
Mon 06:26:42 PM 41.2420 -76.7630 195° South 387 445 35,900  Descending FlightAware ADS-B
Mon 06:27:02 PM 41.1283 -76.8005 194° South 386 444 36,000 171 Climbing FlightAware ADS-B (KPHL)
Mon 06:27:17 PM 41.1040 -76.8080 195° South 388 447 36,000  Level FlightAware ADS-B
Mon 06:27:33 PM 41.0758 -76.8176 194° South 387 445 36,000  Level FlightAware ADS-B (KPHL)
Mon 06:27:53 PM 41.0550 -76.8240 194° South 389 448 36,000  Level FlightAware ADS-B
Mon 06:28:17 PM 40.9996 -76.8427 194° South 390 449 36,000  Level FlightAware ADS-B (KPHL)
Mon 06:29:01 PM 40.9256 -76.8668 194° South 392 451 36,000  Level FlightAware ADS-B (KPHL)
Mon 06:30:18 PM 40.7918 -76.9106 194° South 394 453 36,000  Level FlightAware ADS-B (KPHL)
Mon 06:31:02 PM 40.7112 -76.9369 194° South 396 456 36,000  Level FlightAware ADS-B (KPHL)
Mon 06:31:32 PM 40.6539 -76.9555 194° South 398 458 36,000  Level FlightAware ADS-B (KPHL)
Mon 06:32:15 PM 40.5761 -76.9808 194° South 400 460 36,000  Level FlightAware ADS-B (KPHL)
Mon 06:32:56 PM 40.5127 -77.0013 194° South 400 460 36,000  Level FlightAware ADS-B (KPHL)
Mon 06:34:38 PM 40.3186 -77.0641 196° South 398 458 36,000  Level FlightAware ADS-B (KPHL)
Mon 06:36:47 PM 40.0979 -77.1690 201° Southwest 392 451 36,000  Level FlightAware ADS-B (KPHL)
Mon 06:37:46 PM 39.9981 -77.2175 201° Southwest 391 450 36,000  Level FlightAware ADS-B (KPHL)
Mon 06:38:18 PM 39.9487 -77.2416 200° South 390 449 36,000  Level FlightAware ADS-B (KPHL)
Mon 06:39:03 PM 39.8686 -77.2805 200° South 390 449 36,000  Level FlightAware ADS-B (KPHL)
Mon 06:39:33 PM 39.8172 -77.3053 200° South 391 450 36,000  Level FlightAware ADS-B (KPHL)
Mon 06:40:12 PM 39.7514 -77.3370 200° South 391 450 36,000  Level FlightAware ADS-B
Mon 06:40:47 PM 39.6929 -77.3652 200° South 393 452 36,000  Level FlightAware ADS-B (LFML / MRS)
Mon 06:41:17 PM 39.6412 -77.3901 200° South 395 455 36,000  Level FlightAware ADS-B
Mon 06:41:52 PM 39.5802 -77.4193 200° South 394 453 36,000  Level FlightAware ADS-B
Mon 06:42:22 PM 39.5294 -77.4435 200° South 395 455 36,000  Level FlightAware ADS-B
Mon 06:42:42 PM 39.4968 -77.4591 201° Southwest 395 455 36,000  Level FlightAware ADS-B (KDAA)
Mon 06:43:02 PM 39.4614 -77.4760 200° South 396 456 36,000  Level FlightAware ADS-B
Mon 06:43:04 PM 39.4578 -77.4778 201° Southwest 396 456 36,000  Level FlightAware ADS-B (KDAA)
Mon 06:43:40 PM 39.4022 -77.5043 201° Southwest 397 457 36,000  Level FlightAware ADS-B (KDAA)
Mon 06:44:02 PM 39.3565 -77.5261 200° South 396 456 36,000  Level FlightAware ADS-B
Mon 06:44:11 PM 39.3433 -77.5323 201° Southwest 397 457 36,000  Level FlightAware ADS-B (KDAA)
Mon 06:44:32 PM 39.3075 -77.5493 200° South 397 457 36,000  Level FlightAware ADS-B
Mon 06:44:42 PM 39.2912 -77.5571 201° Southwest 396 456 36,000  Level FlightAware ADS-B (KDAA)
Mon 06:45:13 PM 39.2374 -77.5826 201° Southwest 396 456 36,000  Level FlightAware ADS-B (KDAA)
Mon 06:45:42 PM 39.1843 -77.6078 201° Southwest 397 457 36,000  Level FlightAware ADS-B (KDAA)
Mon 06:46:12 PM 39.1325 -77.6322 201° Southwest 397 457 36,000  Level FlightAware ADS-B (KDAA)
Mon 06:46:22 PM 39.1182 -77.6390 200° South 397 457 36,000  Level FlightAware ADS-B
Mon 06:46:42 PM 39.0806 -77.6567 201° Southwest 398 458 36,000  Level FlightAware ADS-B (KDAA)
Mon 06:47:12 PM 39.0290 -77.6811 201° Southwest 398 458 36,000  Level FlightAware ADS-B (KDAA)
Mon 06:47:43 PM 38.9756 -77.7063 201° Southwest 399 459 36,000  Level FlightAware ADS-B (KDAA)
Mon 06:48:12 PM 38.9239 -77.7306 201° Southwest 400 460 36,000  Level FlightAware ADS-B (KDAA)
Mon 06:49:07 PM 38.8279 -77.7725 198° South 401 461 36,000  Level FlightAware ADS-B (KDAA)
Mon 06:49:37 PM 38.7746 -77.7938 198° South 400 460 36,000  Level FlightAware ADS-B (KDAA)
Mon 06:50:07 PM 38.7214 -77.8155 198° South 400 460 36,000  Level FlightAware ADS-B (KDAA)
Mon 06:50:37 PM 38.6696 -77.8368 198° South 401 461 36,000  Level FlightAware ADS-B (KDAA)
Mon 06:51:08 PM 38.6153 -77.8590 198° South 401 461 36,000  Level FlightAware ADS-B (KDAA)
Mon 06:51:37 PM 38.5626 -77.8807 198° South 401 461 36,000  Level FlightAware ADS-B (KDAA)
Mon 06:52:06 PM 38.5157 -77.9001 198° South 400 460 36,000  Level FlightAware ADS-B (KDAA)
Mon 06:52:37 PM 38.4565 -77.9244 198° South 399 459 36,000  Level FlightAware ADS-B (KDAA)
Mon 06:53:04 PM 38.4098 -77.9435 198° South 399 459 36,000  Level FlightAware ADS-B (KDAA)
Mon 06:53:37 PM 38.3512 -77.9675 198° South 400 460 36,000  Level FlightAware ADS-B (KDAA)
Mon 06:54:07 PM 38.2976 -77.9894 198° South 401 461 36,000  Level FlightAware ADS-B (KDAA)
Mon 06:54:37 PM 38.2474 -78.0099 198° South 403 464 36,000  Level FlightAware ADS-B (KDAA)
Mon 06:55:01 PM 38.2023 -78.0282 198° South 403 464 36,000  Level FlightAware ADS-B (KCHO)
Mon 06:55:54 PM 38.1119 -78.0649 198° South 405 466 36,000  Level FlightAware ADS-B (KCHO)
Mon 06:57:06 PM 37.9802 -78.1182 198° South 404 465 36,000  Level FlightAware ADS-B (KCHO)
Mon 06:57:45 PM 37.9098 -78.1466 198° South 402 463 36,000  Level FlightAware ADS-B (KCHO)
Mon 06:58:35 PM 37.8205 -78.1826 198° South 400 460 36,000  Level FlightAware ADS-B (KCHO)
Mon 06:59:06 PM 37.7672 -78.2040 198° South 399 459 36,000  Level FlightAware ADS-B (KCHO)
Mon 06:59:41 PM 37.7056 -78.2288 198° South 399 459 36,000  Level FlightAware ADS-B (KCHO)
Mon 07:00:16 PM 37.6443 -78.2533 198° South 400 460 36,000  Level FlightAware ADS-B (KCHO)
Mon 07:00:55 PM 37.5740 -78.2814 198° South 400 460 36,000  Level FlightAware ADS-B (KCHO)
Mon 07:02:06 PM 37.4496 -78.3310 198° South 399 459 36,000  Level FlightAware ADS-B (KCHO)
Mon 07:03:18 PM 37.3442 -78.3731 198° South 397 457 36,000  Level Washington Center
Mon 07:04:22 PM 37.2200 -78.4228 198° South 398 458 36,000  Level Washington Center
Mon 07:05:24 PM 37.1169 -78.4628 197° South 398 458 36,000  Level Washington Center
Mon 07:06:27 PM 37.0136 -78.5036 198° South 398 458 36,000  Level Washington Center
Mon 07:07:28 PM 36.8900 -78.5522 197° South 398 458 36,000  Level Washington Center
Mon 07:08:31 PM 36.7886 -78.5925 198° South 395 455 36,000  Level Washington Center
Mon 07:09:31 PM 36.6864 -78.6317 197° South 393 452 36,000  Level Washington Center
Mon 07:10:35 PM 36.5822 -78.6736 198° South 398 458 36,000  Level Washington Center
Mon 07:11:36 PM 36.4586 -78.7217 197° South 390 449 36,000  Level Washington Center
Mon 07:16:35 PM 35.9478 -78.9163 198° South 391 450 36,000  Level FlightAware ADS-B (KBUF)
Mon 07:18:35 PM 35.7351 -78.9973 197° South 400 460 36,000  Level FlightAware ADS-B (KBUF)
Mon 07:20:35 PM 35.5190 -79.0790 197° South 409 471 36,000  Level FlightAware ADS-B (KBUF)
Mon 07:21:58 PM 35.3696 -79.1355 197° South 413 475 36,000  Level FlightAware ADS-B (KBUF)
Mon 07:23:01 PM 35.2503 -79.1819 197° South 408 470 36,000  Level Washington Center
Mon 07:24:01 PM 35.1408 -79.2225 197° South 408 470 36,000  Level Washington Center
Mon 07:25:05 PM 35.0314 -79.2628 197° South 408 470 36,000  Level Washington Center
Mon 07:26:07 PM 34.9217 -79.3039 197° South 410 472 36,000  Level Washington Center
Mon 07:27:07 PM 34.7883 -79.3531 197° South 412 474 36,000 435 Level Washington Center
Mon 07:28:11 PM 34.6778 -79.3925 196° South 414 476 36,900 667 Climbing Washington Center
Mon 07:29:13 PM 34.5689 -79.4339 197° South 413 475 37,400 480 Climbing Washington Center
Mon 07:30:16 PM 34.4567 -79.4731 196° South 416 479 37,900 293 Climbing Washington Center
Mon 07:31:16 PM 34.3461 -79.5142 197° South 417 480 38,000 48 Climbing Washington Center
Mon 07:32:20 PM 34.2372 -79.5522 196° South 412 474 38,000  Level Washington Center
Mon 07:33:20 PM 34.1067 -79.6014 197° South 411 473 38,000  Level Washington Center
Mon 07:34:24 PM 33.9989 -79.6411 197° South 411 473 38,000  Level Washington Center
Mon 07:35:25 PM 33.8908 -79.6786 196° South 411 473 38,000  Level Washington Center
Mon 07:36:29 PM 33.7842 -79.7169 197° South 407 468 38,000 -47 Level Washington Center
Mon 07:37:33 PM 33.6558 -79.7661 198° South 403 464 37,900  Descending Jacksonville Center
Mon 07:38:33 PM 33.5483 -79.8050 197° South 397 457 38,000 50 Climbing Jacksonville Center
Mon 07:39:33 PM 33.4406 -79.8433 197° South 397 457 38,000  Level Jacksonville Center
Mon 07:40:33 PM 33.3331 -79.8819 197° South 397 457 38,000  Level Jacksonville Center
Mon 07:41:33 PM 33.2275 -79.9178 196° South 402 463 38,000  Level Jacksonville Center
Mon 07:42:33 PM 33.1178 -79.9561 196° South 402 463 38,000  Level Jacksonville Center
Mon 07:43:33 PM 33.0100 -79.9919 196° South 402 463 38,000 -50 Level Jacksonville Center
Mon 07:44:33 PM 32.9025 -80.0350 199° South 407 468 37,900 -50 Descending Jacksonville Center
Mon 07:45:33 PM 32.8119 -80.0972 210° Southwest 402 463 37,900 50 Level Jacksonville Center
Mon 07:46:33 PM 32.7236 -80.1642 213° Southwest 389 448 38,000 50 Climbing Jacksonville Center
Mon 07:47:33 PM 32.6333 -80.2283 211° Southwest 384 442 38,000  Level Jacksonville Center
Mon 07:48:33 PM 32.5514 -80.3047 218° Southwest 384 442 38,000  Level Jacksonville Center
Mon 07:49:33 PM 32.4778 -80.3881 224° Southwest 379 436 38,000  Level Jacksonville Center
Mon 07:50:33 PM 32.4044 -80.4739 225° Southwest 373 429 38,000  Level Jacksonville Center
Mon 07:51:33 PM 32.3308 -80.5544 223° Southwest 365 420 38,000  Level Jacksonville Center
Mon 07:52:33 PM 32.2653 -80.6275 223° Southwest 371 427 38,000  Level Jacksonville Center
Mon 07:53:33 PM 32.1917 -80.7125 224° Southwest 371 427 38,000  Level Jacksonville Center
Mon 07:54:33 PM 32.1117 -80.8003 223° Southwest 361 415 38,000  Level Jacksonville Center
Mon 07:55:33 PM 32.0378 -80.8853 224° Southwest 371 427 38,000  Level Jacksonville Center
Mon 07:56:33 PM 31.9681 -80.9578 221° Southwest 371 427 38,000  Level Jacksonville Center
Mon 07:57:33 PM 31.8858 -81.0503 224° Southwest 371 427 38,000  Level Jacksonville Center
Mon 07:58:33 PM 31.8097 -81.1347 223° Southwest 376 433 38,000  Level Jacksonville Center
Mon 07:59:33 PM 31.7442 -81.2094 224° Southwest 370 426 38,000  Level Jacksonville Center
Mon 08:00:33 PM 31.6597 -81.3036 224° Southwest 370 426 38,000  Level Jacksonville Center
Mon 08:01:33 PM 31.5833 -81.3856 222° Southwest 375 432 38,000  Level Jacksonville Center
Mon 08:02:33 PM 31.5133 -81.4622 223° Southwest 375 432 38,000  Level Jacksonville Center
Mon 08:03:33 PM 31.4328 -81.5533 224° Southwest 370 426 38,000  Level Jacksonville Center
Mon 08:04:33 PM 31.3647 -81.6250 222° Southwest 370 426 38,000 -50 Level Jacksonville Center
Mon 08:05:33 PM 31.2925 -81.7086 225° Southwest 370 426 37,900 -50 Descending Jacksonville Center
Mon 08:06:33 PM 31.2181 -81.7872 222° Southwest 370 426 37,900 50 Level Jacksonville Center
Mon 08:07:33 PM 31.1414 -81.8706 223° Southwest 370 426 38,000 50 Climbing Jacksonville Center
Mon 08:08:33 PM 31.0669 -81.9492 222° Southwest 370 426 38,000  Level Jacksonville Center
Mon 08:14:44 PM 30.4516 -82.2196 188° South 413 475 38,000  Level FlightAware ADS-B
Mon 08:15:35 PM 30.3492 -82.2362 188° South 416 479 38,000  Level FlightAware ADS-B
Mon 08:16:08 PM 30.2855 -82.2465 188° South 416 479 38,000  Level FlightAware ADS-B
Mon 08:16:38 PM 30.2240 -82.2525 180° South 429 494 38,000  Level FlightAware ADS-B
Mon 08:17:09 PM 30.1661 -82.2525 180° South 429 494 38,000 -98 Level FlightAware ADS-B
Mon 08:17:39 PM 30.1042 -82.2526 180° South 428 493 37,900 -1,292 Descending FlightAware ADS-B
Mon 08:18:14 PM 30.0401 -82.2529 180° South 422 486 36,600 -2,432 Descending FlightAware ADS-B
Mon 08:18:53 PM 29.9570 -82.2534 180° South 425 489 34,900 -2,514 Descending FlightAware ADS-B
Mon 08:19:28 PM 29.8878 -82.2538 180° South 436 502 33,500 -2,273 Descending FlightAware ADS-B
Mon 08:19:59 PM 29.8259 -82.2541 180° South 447 514 32,400 -2,113 Descending FlightAware ADS-B
Mon 08:20:39 PM 29.7438 -82.2540 180° South 438 504 31,000 -2,057 Descending FlightAware ADS-B
Mon 08:21:09 PM 29.6820 -82.2539 180° South 424 488 30,000 -1,944 Descending FlightAware ADS-B
Mon 08:21:50 PM 29.6039 -82.2543 180° South 415 478 28,700 -2,000 Descending FlightAware ADS-B
Mon 08:22:21 PM 29.5448 -82.2546 180° South 414 476 27,600 -2,057 Descending FlightAware ADS-B
Mon 08:23:00 PM 29.4682 -82.2550 180° South 404 465 26,300 -1,944 Descending FlightAware ADS-B
Mon 08:23:32 PM 29.4102 -82.2550 180° South 400 460 25,300 -1,944 Descending FlightAware ADS-B
Mon 08:24:11 PM 29.3371 -82.2552 180° South 391 450 24,000 -1,971 Descending FlightAware ADS-B
Mon 08:24:42 PM 29.2820 -82.2554 180° South 386 444 23,000 -1,967 Descending FlightAware ADS-B
Mon 08:25:12 PM 29.2283 -82.2557 180° South 378 435 22,000 -2,100 Descending FlightAware ADS-B
Mon 08:25:42 PM 29.1760 -82.2560 180° South 371 427 20,900 -2,047 Descending FlightAware ADS-B
Mon 08:27:21 PM 29.0105 -82.2566 180° South 356 410 17,600 -1,660 Descending FlightAware ADS-B
Mon 08:28:03 PM 28.9477 -82.2569 180° South 326 375 17,000 -1,151 Descending FlightAware ADS-B
Mon 08:28:34 PM 28.9011 -82.2571 180° South 319 367 16,200 -2,000 Descending FlightAware ADS-B
Mon 08:29:12 PM 28.8394 -82.2574 180° South 333 383 14,700 -2,320 Descending FlightAware ADS-B
Mon 08:29:49 PM 28.7828 -82.2577 180° South 320 368 13,300 -1,207 Descending FlightAware ADS-B
Mon 08:32:16 PM 28.5809 -82.2556 186° South 299 344 11,000 -968 Descending FlightAware ADS-B
Mon 08:32:24 PM 28.5677 -82.2591 203° Southwest 298 343 10,800 -1,440 Descending FlightAware ADS-B
Mon 08:32:41 PM 28.5562 -82.2667 224° Southwest 273 314 10,400 -1,050 Descending FlightAware ADS-B
Mon 08:33:04 PM 28.5350 -82.3046 245° Southwest 295 339 10,100 -289 Descending FlightAware ADS-B
Mon 08:34:04 PM 28.5012 -82.3873 237° Southwest 297 342 10,000 -429 Descending FlightAware ADS-B
Mon 08:35:24 PM 28.4417 -82.4856 237° Southwest 346 398 9,100 -1,032 Descending FlightAware ADS-B
Mon 08:36:41 PM 28.3872 -82.5719 232° Southwest 264 304 7,300 -1,338 Descending FlightAware ADS-B
Mon 08:37:43 PM 28.3333 -82.6333 232° Southwest 265 305 6,000 -1,219 Descending Tampa TRACON
Mon 08:38:49 PM 28.2833 -82.6833 221° Southwest 248 285 4,700 -1,136 Descending Tampa TRACON
Mon 08:39:55 PM 28.2167 -82.7167 204° Southwest 230 265 3,500 -905 Descending Tampa TRACON
Mon 08:40:55 PM 28.1500 -82.7333 192° South 210 242 2,800 -429 Descending Tampa TRACON
Mon 08:42:01 PM 28.0833 -82.7167 168° South 203 234 2,600 -190 Descending Tampa TRACON
Mon 08:43:01 PM 28.0500 -82.7167 180° South 153 176 2,400 -450 Descending Tampa TRACON
Mon 08:44:01 PM 28.0167 -82.7000 156° South 127 146 1,700 -700 Descending Tampa TRACON
Mon 08:45:01 PM 27.9667 -82.7000 180° South 129 148 1,000 -700 Descending Tampa TRACON
Mon 08:46:01 PM 27.9333 -82.7000 180° South 131 151 300 -700 Descending Tampa TRACON

Login

Don't have an account? Register now (free) for customized features, flight alerts, and more!